Satellite Precipitation Estimates (TXUS20 KWBC)
Issued by NWS

Home | Current Version | Previous Version | Text Only | Print | Product List | Glossary On
Versions: 1
000
SPTD31 TTPP 280937 RRA
SPECI
TTCP 280916Z 00000KT 9000 VCTS FEW012CB SCT016 25/24 Q1011 NOSIG
RMK CB NW VCSH NE, SE, S=



USA.gov is the U.S. government's official web portal to all federal, state and local government web resources and services.